createdAt,value
2022-10-20T00:01:41.490Z,9.83
2022-10-20T00:04:07.947Z,9.90
2022-10-20T00:06:34.411Z,9.91
2022-10-20T00:09:03.783Z,9.91
2022-10-20T00:11:31.212Z,9.87
2022-10-20T00:13:59.463Z,9.91
2022-10-20T00:16:28.591Z,9.91
2022-10-20T00:18:56.037Z,9.90
2022-10-20T00:21:25.885Z,9.89
2022-10-20T00:23:53.253Z,9.90
2022-10-20T00:26:24.738Z,9.83
2022-10-20T00:28:51.968Z,9.84
2022-10-20T00:31:20.354Z,9.85
2022-10-20T00:33:47.144Z,9.84
2022-10-20T00:36:16.422Z,9.86
2022-10-20T00:38:43.722Z,9.88
2022-10-20T00:41:14.059Z,9.85
2022-10-20T00:43:51.704Z,9.83
2022-10-20T00:46:28.727Z,9.77
2022-10-20T00:48:59.122Z,9.79
2022-10-20T00:51:28.806Z,9.81
2022-10-20T00:54:03.227Z,9.78
2022-10-20T00:56:29.780Z,9.79
2022-10-20T00:58:56.455Z,9.75
2022-10-20T01:01:22.931Z,9.77
2022-10-20T01:03:51.292Z,9.75
2022-10-20T01:06:20.357Z,9.77
2022-10-20T01:08:47.092Z,9.75
2022-10-20T01:11:35.153Z,9.73
2022-10-20T01:14:12.671Z,9.70
2022-10-20T01:17:06.700Z,9.67
2022-10-20T01:19:45.315Z,9.67
2022-10-20T01:22:11.684Z,9.67
2022-10-20T01:25:06.268Z,9.65
2022-10-20T01:27:38.511Z,9.63
2022-10-20T01:30:07.831Z,9.61
2022-10-20T01:32:46.488Z,9.54
2022-10-20T01:35:31.592Z,9.58
2022-10-20T01:38:20.271Z,9.57
2022-10-20T01:41:02.750Z,9.54
2022-10-20T01:43:35.936Z,9.55
2022-10-20T01:46:04.362Z,9.55
2022-10-20T01:48:34.506Z,9.54
2022-10-20T01:51:03.967Z,9.49
2022-10-20T01:53:30.498Z,9.55
2022-10-20T01:55:59.694Z,9.55
2022-10-20T01:58:32.862Z,9.55
2022-10-20T02:01:08.246Z,9.50
2022-10-20T02:03:54.028Z,9.50
2022-10-20T02:06:44.629Z,9.50
2022-10-20T02:09:44.159Z,9.46
2022-10-20T02:12:17.567Z,9.45
2022-10-20T02:14:45.256Z,9.44
2022-10-20T02:17:15.633Z,9.43
2022-10-20T02:19:45.527Z,9.43
2022-10-20T02:22:15.227Z,9.42
2022-10-20T02:24:45.468Z,9.41
2022-10-20T02:27:18.970Z,9.38
2022-10-20T02:29:51.642Z,9.40
2022-10-20T02:32:21.570Z,9.41
2022-10-20T02:34:48.066Z,9.38
2022-10-20T02:37:14.619Z,9.42
2022-10-20T02:39:41.059Z,9.43
2022-10-20T02:42:07.774Z,9.40
2022-10-20T02:44:44.226Z,9.38
2022-10-20T02:47:10.776Z,9.38
2022-10-20T02:49:37.201Z,9.36
2022-10-20T02:52:03.695Z,9.36
2022-10-20T02:54:30.127Z,9.37
2022-10-20T02:56:59.638Z,9.38
2022-10-20T02:59:26.052Z,9.33
2022-10-20T03:01:52.665Z,9.35
2022-10-20T03:04:19.332Z,9.35
2022-10-20T03:06:46.063Z,9.38
2022-10-20T03:09:12.562Z,9.38
2022-10-20T03:11:41.705Z,9.34
2022-10-20T03:14:08.187Z,9.33
2022-10-20T03:16:34.630Z,9.33
2022-10-20T03:19:03.973Z,9.31
2022-10-20T03:21:34.010Z,9.32
2022-10-20T03:24:01.659Z,9.31
2022-10-20T03:26:28.120Z,9.31
2022-10-20T03:28:55.201Z,9.34
2022-10-20T03:31:21.734Z,9.33
2022-10-20T03:33:48.158Z,9.31
2022-10-20T03:36:14.596Z,9.34
2022-10-20T03:38:42.999Z,9.30
2022-10-20T03:41:12.218Z,9.33
2022-10-20T03:43:40.127Z,9.28
2022-10-20T03:46:09.108Z,9.28
2022-10-20T03:48:36.086Z,9.26
2022-10-20T03:51:03.622Z,9.26
2022-10-20T03:53:33.380Z,9.26
2022-10-20T03:55:59.761Z,9.22
2022-10-20T03:58:26.180Z,9.27
2022-10-20T04:00:52.930Z,9.25
2022-10-20T04:03:19.353Z,9.22
2022-10-20T04:05:46.128Z,9.22
2022-10-20T04:08:12.669Z,9.23
2022-10-20T04:10:39.232Z,9.28
2022-10-20T04:13:05.841Z,9.28
2022-10-20T04:15:32.540Z,9.27
2022-10-20T04:17:59.080Z,9.32
2022-10-20T04:20:26.003Z,9.29
2022-10-20T04:22:52.462Z,9.30
2022-10-20T04:25:18.969Z,9.31
2022-10-20T04:27:45.631Z,9.33
2022-10-20T04:30:12.277Z,9.32
2022-10-20T04:32:38.775Z,9.28
2022-10-20T04:35:05.722Z,9.33
2022-10-20T04:37:32.144Z,9.31
2022-10-20T04:39:58.721Z,9.30
2022-10-20T04:42:25.322Z,9.33
2022-10-20T04:44:51.893Z,9.34
2022-10-20T04:47:18.459Z,9.35
2022-10-20T04:49:44.858Z,9.31
2022-10-20T04:52:11.343Z,9.34
2022-10-20T04:54:37.809Z,9.34
2022-10-20T04:57:06.123Z,9.32
2022-10-20T04:59:32.784Z,9.31
2022-10-20T05:01:59.307Z,9.34
2022-10-20T05:04:25.955Z,9.34
2022-10-20T05:06:55.159Z,9.38
2022-10-20T05:09:21.571Z,9.39
2022-10-20T05:11:47.988Z,9.41
2022-10-20T05:14:14.435Z,9.42
2022-10-20T05:16:40.893Z,9.42
2022-10-20T05:19:07.393Z,9.43
2022-10-20T05:21:37.701Z,9.41
2022-10-20T05:24:05.484Z,9.41
2022-10-20T05:26:36.447Z,9.41
2022-10-20T05:29:07.913Z,9.43
2022-10-20T05:31:39.881Z,9.44
2022-10-20T05:34:12.578Z,9.45
2022-10-20T05:36:39.240Z,9.45
2022-10-20T05:39:05.915Z,9.47
2022-10-20T05:41:38.075Z,9.48
2022-10-20T05:44:08.629Z,9.50
2022-10-20T05:46:46.642Z,9.49
2022-10-20T05:49:16.602Z,9.49
2022-10-20T05:51:44.617Z,9.49
2022-10-20T05:54:12.695Z,9.54
2022-10-20T05:56:39.616Z,9.56
2022-10-20T05:59:08.625Z,9.56
2022-10-20T06:01:50.201Z,9.57
2022-10-20T06:04:19.391Z,9.56
2022-10-20T06:06:45.920Z,9.55
2022-10-20T06:09:12.599Z,9.57
2022-10-20T06:11:39.889Z,9.57
2022-10-20T06:14:07.847Z,9.58
2022-10-20T06:16:34.875Z,9.59
2022-10-20T06:19:01.798Z,9.56
2022-10-20T06:21:31.218Z,9.61
2022-10-20T06:23:59.409Z,9.62
2022-10-20T06:26:32.777Z,9.63
2022-10-20T06:29:04.390Z,9.63
2022-10-20T06:31:43.679Z,9.67
2022-10-20T06:34:13.761Z,9.68
2022-10-20T06:36:41.882Z,9.69
2022-10-20T06:39:10.914Z,9.65
2022-10-20T06:41:40.127Z,9.75
2022-10-20T06:44:07.375Z,9.78
2022-10-20T06:46:36.487Z,9.79
2022-10-20T06:49:05.459Z,9.81
2022-10-20T06:51:33.252Z,9.81
2022-10-20T06:54:00.590Z,9.82
2022-10-20T06:56:29.260Z,9.85
2022-10-20T06:59:01.848Z,9.90
2022-10-20T07:01:33.535Z,9.93
2022-10-20T07:04:06.546Z,9.97
2022-10-20T07:06:35.988Z,10.02
2022-10-20T07:09:04.054Z,10.05
2022-10-20T07:11:31.976Z,10.10
2022-10-20T07:13:59.345Z,10.15
2022-10-20T07:16:28.241Z,10.20
2022-10-20T07:18:55.530Z,10.23
2022-10-20T07:21:30.741Z,10.26
2022-10-20T07:24:01.856Z,10.30
2022-10-20T07:26:31.551Z,10.36
2022-10-20T07:28:59.596Z,10.41
2022-10-20T07:31:35.029Z,10.46
2022-10-20T07:34:13.776Z,10.53
2022-10-20T07:36:49.921Z,10.60
2022-10-20T07:39:16.815Z,10.60
2022-10-20T07:41:47.712Z,10.67
2022-10-20T07:44:14.576Z,10.71
2022-10-20T07:46:41.022Z,10.76
2022-10-20T07:49:38.177Z,10.84
2022-10-20T07:51:53.977Z,10.90
2022-10-20T07:54:20.480Z,11.00
2022-10-20T07:56:46.924Z,11.07
2022-10-20T07:59:14.144Z,11.18
2022-10-20T08:01:41.174Z,11.27
2022-10-20T08:04:07.971Z,11.36
2022-10-20T08:06:35.103Z,11.42
2022-10-20T08:09:01.958Z,11.41
2022-10-20T08:11:28.462Z,11.63
2022-10-20T08:13:54.966Z,11.73
2022-10-20T08:16:26.300Z,11.85
2022-10-20T08:19:10.486Z,11.97
2022-10-20T08:21:37.070Z,12.03
2022-10-20T08:24:03.832Z,12.15
2022-10-20T08:26:30.384Z,12.24
2022-10-20T08:28:57.308Z,12.32
2022-10-20T08:31:23.914Z,12.39
2022-10-20T08:33:53.004Z,12.49
2022-10-20T08:36:20.422Z,12.58
2022-10-20T08:38:46.943Z,12.64
2022-10-20T08:41:16.491Z,12.73
2022-10-20T08:43:43.309Z,12.82
2022-10-20T08:46:15.122Z,12.90
2022-10-20T08:48:42.649Z,12.99
2022-10-20T08:51:19.808Z,13.12
2022-10-20T08:53:47.883Z,13.23
2022-10-20T08:56:15.257Z,13.35
2022-10-20T08:58:44.509Z,13.49
2022-10-20T09:01:35.858Z,13.63
2022-10-20T09:04:32.713Z,13.75
2022-10-20T09:07:03.036Z,13.93
2022-10-20T09:09:32.005Z,14.11
2022-10-20T09:12:05.509Z,14.21
2022-10-20T09:14:35.717Z,14.40
2022-10-20T09:17:02.875Z,14.54
2022-10-20T09:19:30.086Z,14.72
2022-10-20T09:21:59.372Z,14.88
2022-10-20T09:24:29.892Z,15.00
2022-10-20T09:26:59.498Z,15.16
2022-10-20T09:29:38.015Z,15.20
2022-10-20T09:32:44.880Z,15.25
2022-10-20T09:35:19.374Z,15.36
2022-10-20T09:37:52.721Z,15.43
2022-10-20T09:40:19.941Z,15.52
2022-10-20T09:42:54.511Z,15.58
2022-10-20T09:45:24.748Z,15.60
2022-10-20T09:48:00.587Z,15.64
2022-10-20T09:50:30.836Z,15.67
2022-10-20T09:52:59.363Z,15.78
2022-10-20T09:55:35.478Z,15.82
2022-10-20T09:58:04.917Z,15.86
2022-10-20T10:00:37.868Z,15.91
2022-10-20T10:03:21.086Z,15.94
2022-10-20T10:06:00.947Z,15.98
2022-10-20T10:08:40.614Z,16.04
2022-10-20T10:11:18.573Z,16.08
2022-10-20T10:13:47.736Z,16.13
2022-10-20T10:16:18.304Z,16.18
2022-10-20T10:18:54.359Z,16.18
2022-10-20T10:21:21.576Z,16.24
2022-10-20T10:23:53.911Z,16.27
2022-10-20T10:26:45.312Z,16.31
2022-10-20T10:29:19.461Z,16.32
2022-10-20T10:31:51.766Z,16.34
2022-10-20T10:34:18.160Z,16.32
2022-10-20T10:36:44.836Z,16.32
2022-10-20T10:39:14.579Z,16.41
2022-10-20T10:41:52.834Z,16.55
2022-10-20T10:44:30.660Z,16.63
2022-10-20T10:47:25.398Z,16.76
2022-10-20T10:50:19.203Z,16.78
2022-10-20T10:53:04.020Z,16.89
2022-10-20T10:55:49.107Z,16.96
2022-10-20T10:58:37.725Z,17.04
2022-10-20T11:01:07.147Z,17.12
2022-10-20T11:03:56.320Z,17.12
2022-10-20T11:06:28.757Z,17.22
2022-10-20T11:09:01.071Z,17.29
2022-10-20T11:11:40.951Z,17.24
2022-10-20T11:14:07.329Z,17.21
2022-10-20T11:16:45.149Z,17.22
2022-10-20T11:19:30.584Z,17.32
2022-10-20T11:22:24.307Z,17.37
2022-10-20T11:25:33.002Z,17.28
2022-10-20T11:28:00.342Z,17.35
2022-10-20T11:30:27.451Z,17.36
2022-10-20T11:33:16.999Z,17.34
2022-10-20T11:35:51.819Z,17.33
2022-10-20T11:38:32.338Z,17.37
2022-10-20T11:41:26.706Z,17.37
2022-10-20T11:44:06.145Z,17.34
2022-10-20T11:46:47.507Z,17.35
2022-10-20T11:49:14.118Z,17.37
2022-10-20T11:51:52.625Z,17.38
2022-10-20T11:54:21.658Z,17.38
2022-10-20T11:56:54.231Z,17.34
2022-10-20T11:59:53.105Z,17.37
2022-10-20T12:02:29.397Z,17.35
2022-10-20T12:05:41.041Z,17.32
2022-10-20T12:08:36.224Z,17.31
2022-10-20T12:11:17.366Z,17.31
2022-10-20T12:14:08.338Z,17.32
2022-10-20T12:16:53.453Z,17.28
2022-10-20T12:19:30.113Z,17.19
2022-10-20T12:21:56.511Z,17.13
2022-10-20T12:24:35.011Z,16.98
2022-10-20T12:27:10.498Z,16.98
2022-10-20T12:29:36.876Z,16.84
2022-10-20T12:32:21.881Z,16.79
2022-10-20T12:34:53.863Z,16.72
2022-10-20T12:37:20.174Z,16.67
2022-10-20T12:39:47.254Z,16.54
2022-10-20T12:42:22.275Z,16.53
2022-10-20T12:44:50.045Z,16.49
2022-10-20T12:47:28.349Z,16.28
2022-10-20T12:50:23.230Z,16.33
2022-10-20T12:52:49.771Z,16.17
2022-10-20T12:58:18.706Z,16.21
2022-10-20T13:00:48.221Z,16.21
2022-10-20T13:03:44.245Z,16.17
2022-10-20T13:06:22.762Z,16.23
2022-10-20T13:09:04.727Z,16.27
2022-10-20T13:11:44.454Z,16.26
2022-10-20T13:14:13.876Z,16.26
2022-10-20T13:16:46.424Z,16.26
2022-10-20T13:19:22.886Z,16.26
2022-10-20T13:21:50.315Z,16.36
2022-10-20T13:24:27.870Z,16.41
2022-10-20T13:26:57.653Z,16.43
2022-10-20T13:29:33.190Z,16.48
2022-10-20T13:34:42.963Z,16.52
2022-10-20T13:37:22.555Z,16.55
2022-10-20T13:40:18.902Z,16.58
2022-10-20T13:43:13.999Z,16.70
2022-10-20T13:45:55.844Z,16.76
2022-10-20T13:48:43.324Z,16.84
2022-10-20T13:51:23.865Z,16.99
2022-10-20T13:53:54.316Z,17.41
2022-10-20T13:56:34.885Z,17.76
2022-10-20T13:59:05.530Z,17.78
2022-10-20T14:01:35.313Z,18.13
2022-10-20T14:04:01.827Z,18.33
2022-10-20T14:06:31.983Z,18.42
2022-10-20T14:09:08.875Z,18.35
2022-10-20T14:11:35.406Z,18.29
2022-10-20T14:14:02.604Z,18.10
2022-10-20T14:16:31.451Z,18.12
2022-10-20T14:19:05.695Z,18.02
2022-10-20T14:21:49.176Z,17.88
2022-10-20T14:24:28.582Z,17.91
2022-10-20T14:26:56.663Z,18.01
2022-10-20T14:29:24.770Z,18.50
2022-10-20T14:31:51.652Z,19.16
2022-10-20T14:34:22.175Z,19.70
2022-10-20T14:36:50.588Z,20.12
2022-10-20T14:39:36.283Z,20.28
2022-10-20T14:42:04.348Z,20.52
2022-10-20T14:44:32.026Z,20.58
2022-10-20T14:47:05.311Z,20.62
2022-10-20T14:49:39.351Z,20.54
2022-10-20T14:52:21.217Z,20.35
2022-10-20T14:54:50.435Z,20.50
2022-10-20T14:57:16.772Z,20.41
2022-10-20T15:00:04.310Z,20.48
2022-10-20T15:02:38.502Z,20.47
2022-10-20T15:05:27.015Z,20.27
2022-10-20T15:07:54.076Z,20.36
2022-10-20T15:10:23.869Z,20.55
2022-10-20T15:12:53.191Z,20.39
2022-10-20T15:15:26.297Z,20.23
2022-10-20T15:18:10.035Z,20.04
2022-10-20T15:20:40.270Z,19.92
2022-10-20T15:23:14.666Z,19.90
2022-10-20T15:25:59.794Z,19.68
2022-10-20T15:28:35.421Z,19.55
2022-10-20T15:31:05.448Z,19.65
2022-10-20T15:33:32.531Z,19.62
2022-10-20T15:36:00.696Z,19.54
2022-10-20T15:38:27.741Z,19.37
2022-10-20T15:40:54.421Z,19.29
2022-10-20T15:43:21.172Z,19.13
2022-10-20T15:45:54.472Z,19.02
2022-10-20T15:48:23.999Z,18.97
2022-10-20T15:50:53.157Z,18.82
2022-10-20T15:53:19.813Z,18.66
2022-10-20T15:55:46.426Z,18.59
2022-10-20T15:58:13.242Z,18.57
2022-10-20T16:00:40.204Z,18.53
2022-10-20T16:03:06.943Z,18.44
2022-10-20T16:05:34.023Z,18.41
2022-10-20T16:08:00.710Z,18.35
2022-10-20T16:10:30.563Z,18.31
2022-10-20T16:12:58.128Z,18.23
2022-10-20T16:15:30.295Z,18.21
2022-10-20T16:17:58.202Z,18.13
2022-10-20T16:20:24.834Z,18.09
2022-10-20T16:22:51.223Z,17.99
2022-10-20T16:25:17.711Z,17.94
2022-10-20T16:27:44.189Z,17.83
2022-10-20T16:30:13.522Z,17.72
2022-10-20T16:32:40.294Z,17.67
2022-10-20T16:35:07.138Z,17.64
2022-10-20T16:37:34.071Z,17.54
2022-10-20T16:40:00.844Z,17.51
2022-10-20T16:42:30.256Z,17.47
2022-10-20T16:44:57.042Z,17.42
2022-10-20T16:47:25.334Z,17.33
2022-10-20T16:49:51.829Z,17.26
2022-10-20T16:52:18.359Z,17.22
2022-10-20T16:54:44.771Z,17.14
2022-10-20T16:57:11.557Z,17.09
2022-10-20T16:59:38.707Z,17.03
2022-10-20T17:02:06.093Z,17.04
2022-10-20T17:04:33.540Z,16.97
2022-10-20T17:06:59.927Z,16.97
2022-10-20T17:09:26.464Z,16.88
2022-10-20T17:11:52.843Z,16.85
2022-10-20T17:14:19.414Z,16.82
2022-10-20T17:16:47.248Z,16.76
2022-10-20T17:19:13.676Z,16.70
2022-10-20T17:21:40.179Z,16.60
2022-10-20T17:24:11.176Z,16.63
2022-10-20T17:26:38.475Z,16.60
2022-10-20T17:29:04.983Z,16.58
2022-10-20T17:31:31.728Z,16.56
2022-10-20T17:33:58.965Z,16.53
2022-10-20T17:36:26.486Z,16.44
2022-10-20T17:39:01.596Z,16.39
2022-10-20T17:41:29.026Z,16.36
2022-10-20T17:43:55.476Z,16.35
2022-10-20T17:46:21.956Z,16.26
2022-10-20T17:48:48.506Z,16.20
2022-10-20T17:51:23.255Z,16.19
2022-10-20T17:53:51.535Z,16.03
2022-10-20T17:56:23.823Z,15.99
2022-10-20T17:58:51.658Z,16.02
2022-10-20T18:01:23.639Z,16.01
2022-10-20T18:04:04.378Z,15.97
2022-10-20T18:06:34.811Z,16.00
2022-10-20T18:09:05.093Z,15.97
2022-10-20T18:11:33.351Z,16.03
2022-10-20T18:14:00.397Z,16.05
2022-10-20T18:16:29.286Z,16.00
2022-10-20T18:18:59.653Z,16.01
2022-10-20T18:21:28.259Z,16.02
2022-10-20T18:24:06.267Z,16.01
2022-10-20T18:26:35.036Z,16.09
2022-10-20T18:29:02.597Z,16.10
2022-10-20T18:31:31.556Z,16.15
2022-10-20T18:34:04.183Z,16.15
2022-10-20T18:36:33.140Z,16.14
2022-10-20T18:38:59.942Z,16.21
2022-10-20T18:41:32.957Z,16.28
2022-10-20T18:44:01.321Z,16.31
2022-10-20T18:46:29.865Z,16.36
2022-10-20T18:48:57.256Z,16.39
2022-10-20T18:51:24.042Z,16.40
2022-10-20T18:53:55.309Z,16.42
2022-10-20T18:56:23.834Z,16.42
2022-10-20T18:58:52.610Z,16.45
2022-10-20T19:01:21.647Z,16.44
2022-10-20T19:03:50.471Z,16.45
2022-10-20T19:06:20.075Z,16.43
2022-10-20T19:08:51.034Z,16.45
2022-10-20T19:11:17.526Z,16.49
2022-10-20T19:13:43.931Z,16.47
2022-10-20T19:16:15.995Z,16.43
2022-10-20T19:18:47.699Z,16.48
2022-10-20T19:21:14.740Z,16.50
2022-10-20T19:24:09.095Z,16.46
2022-10-20T19:26:40.403Z,16.53
2022-10-20T19:29:10.336Z,16.51
2022-10-20T19:32:06.371Z,16.52
2022-10-20T19:34:38.862Z,16.52
2022-10-20T19:37:06.084Z,16.43
2022-10-20T19:39:36.944Z,16.47
2022-10-20T19:42:05.218Z,16.43
2022-10-20T19:44:32.082Z,16.55
2022-10-20T19:46:59.066Z,16.51
2022-10-20T19:49:26.395Z,16.54
2022-10-20T19:51:53.477Z,16.47
2022-10-20T19:54:20.356Z,16.40
2022-10-20T19:56:46.826Z,16.34
2022-10-20T19:59:13.800Z,16.25
2022-10-20T20:01:40.339Z,16.31
2022-10-20T20:04:07.136Z,16.25
2022-10-20T20:06:34.684Z,16.24
2022-10-20T20:09:04.433Z,16.25
2022-10-20T20:11:31.189Z,16.25
2022-10-20T20:14:01.820Z,16.31
2022-10-20T20:16:29.301Z,16.28
2022-10-20T20:18:56.178Z,16.35
2022-10-20T20:21:23.215Z,16.33
2022-10-20T20:23:59.248Z,16.36
2022-10-20T20:26:30.956Z,16.39
2022-10-20T20:28:58.254Z,16.43
2022-10-20T20:31:25.587Z,16.44
2022-10-20T20:33:53.059Z,16.42
2022-10-20T20:36:20.189Z,16.43
2022-10-20T20:38:46.797Z,16.39
2022-10-20T20:41:18.073Z,16.36
2022-10-20T20:43:45.266Z,16.38
2022-10-20T20:46:14.232Z,16.40
2022-10-20T20:48:40.684Z,16.39
2022-10-20T20:51:07.609Z,16.42
2022-10-20T20:53:36.062Z,16.49
2022-10-20T20:56:09.455Z,16.54
2022-10-20T20:58:37.385Z,16.57
2022-10-20T21:01:19.186Z,16.55
2022-10-20T21:03:46.297Z,16.65
2022-10-20T21:06:16.365Z,16.60
2022-10-20T21:08:46.376Z,16.55
2022-10-20T21:11:26.168Z,16.47
2022-10-20T21:13:54.763Z,16.45
2022-10-20T21:16:24.223Z,16.49
2022-10-20T21:18:52.911Z,16.51
2022-10-20T21:21:28.071Z,16.50
2022-10-20T21:23:56.258Z,16.49
2022-10-20T21:26:23.466Z,16.50
2022-10-20T21:28:50.700Z,16.50
2022-10-20T21:31:19.900Z,16.56
2022-10-20T21:33:50.483Z,16.63
2022-10-20T21:36:18.492Z,16.56
2022-10-20T21:38:45.538Z,16.58
2022-10-20T21:41:17.786Z,16.54
2022-10-20T21:43:48.146Z,16.52
2022-10-20T21:46:22.078Z,16.53
2022-10-20T21:48:50.425Z,16.52
2022-10-20T21:51:26.370Z,16.53
2022-10-20T21:53:57.744Z,16.56
2022-10-20T21:56:25.418Z,16.59
2022-10-20T21:58:53.318Z,16.55
2022-10-20T22:01:22.504Z,16.56
2022-10-20T22:03:49.907Z,16.60
2022-10-20T22:06:18.457Z,16.56
2022-10-20T22:08:47.601Z,16.60
2022-10-20T22:11:20.964Z,16.58
2022-10-20T22:13:48.109Z,16.64
2022-10-20T22:16:17.512Z,16.62
2022-10-20T22:18:44.194Z,16.62
2022-10-20T22:21:13.893Z,16.69
2022-10-20T22:23:41.317Z,16.70
2022-10-20T22:26:08.308Z,16.72
2022-10-20T22:28:34.740Z,16.76
2022-10-20T22:33:33.366Z,16.85
2022-10-20T22:36:00.348Z,16.79
2022-10-20T22:38:26.972Z,16.90
2022-10-20T22:40:58.509Z,16.89
2022-10-20T22:43:25.091Z,16.95
2022-10-20T22:45:51.497Z,17.00
2022-10-20T22:48:17.910Z,16.97
2022-10-20T22:50:44.303Z,16.99
2022-10-20T22:53:11.184Z,16.98
2022-10-20T22:55:37.660Z,17.02
2022-10-20T22:58:04.738Z,16.98
2022-10-20T23:00:31.432Z,17.04
2022-10-20T23:02:58.431Z,17.08
2022-10-20T23:05:24.883Z,17.06
2022-10-20T23:07:51.331Z,17.09
2022-10-20T23:10:17.975Z,17.15
2022-10-20T23:12:44.381Z,17.28
2022-10-20T23:15:10.927Z,17.32
2022-10-20T23:17:37.819Z,17.39
2022-10-20T23:20:05.024Z,17.44
2022-10-20T23:22:31.658Z,17.47
2022-10-20T23:24:58.150Z,17.52
2022-10-20T23:27:24.560Z,17.56
2022-10-20T23:29:50.987Z,17.56
2022-10-20T23:32:17.394Z,17.56
2022-10-20T23:34:43.820Z,17.61
2022-10-20T23:37:10.250Z,17.63
2022-10-20T23:39:36.689Z,17.62
2022-10-20T23:42:06.363Z,17.59
2022-10-20T23:44:36.882Z,17.61
2022-10-20T23:47:03.660Z,17.63
2022-10-20T23:49:30.288Z,17.64
2022-10-20T23:51:56.689Z,17.55
2022-10-20T23:54:23.110Z,17.48
2022-10-20T23:56:50.945Z,17.39
2022-10-20T23:59:26.223Z,17.33
